createdAt,value
2022-08-12T00:00:04.537Z,20.05
2022-08-12T00:01:05.320Z,20.05
2022-08-12T00:02:07.183Z,20.05
2022-08-12T00:03:06.956Z,20.04
2022-08-12T00:04:07.520Z,20.04
2022-08-12T00:05:07.704Z,20.03
2022-08-12T00:06:07.811Z,20.03
2022-08-12T00:07:08.340Z,20.02
2022-08-12T00:08:08.377Z,20.01
2022-08-12T00:09:08.944Z,20.01
2022-08-12T00:10:10.832Z,20.00
2022-08-12T00:11:12.634Z,20.00
2022-08-12T00:12:11.113Z,19.99
2022-08-12T00:13:13.060Z,19.98
2022-08-12T00:14:12.620Z,19.98
2022-08-12T00:15:14.221Z,19.97
2022-08-12T00:16:14.815Z,19.97
2022-08-12T00:17:14.279Z,19.97
2022-08-12T00:18:14.880Z,19.96
2022-08-12T00:19:15.734Z,19.96
2022-08-12T00:20:16.570Z,19.95
2022-08-12T00:21:18.249Z,19.94
2022-08-12T00:22:17.880Z,19.94
2022-08-12T00:23:18.598Z,19.93
2022-08-12T00:23:28.271Z,19.81
2022-08-12T00:24:29.135Z,19.78
2022-08-12T00:26:05.818Z,19.78
2022-08-12T00:26:30.524Z,19.78
2022-08-12T00:27:43.957Z,19.78
2022-08-12T00:28:31.922Z,19.78
2022-08-12T00:29:32.711Z,19.78
2022-08-12T00:30:34.750Z,19.78
2022-08-12T00:31:34.088Z,19.78
2022-08-12T00:32:36.056Z,19.78
2022-08-12T00:33:41.099Z,19.77
2022-08-12T00:34:36.278Z,19.77
2022-08-12T00:35:37.274Z,19.77
2022-08-12T00:36:37.821Z,19.77
2022-08-12T00:37:38.409Z,19.77
2022-08-12T00:38:40.128Z,19.76
2022-08-12T00:39:40.786Z,19.76
2022-08-12T00:40:40.632Z,19.75
2022-08-12T00:41:41.045Z,19.75
2022-08-12T00:42:43.287Z,19.74
2022-08-12T00:43:42.325Z,19.73
2022-08-12T00:44:44.072Z,19.71
2022-08-12T00:45:43.961Z,19.71
2022-08-12T00:46:44.500Z,19.70
2022-08-12T00:47:46.285Z,19.68
2022-08-12T00:48:46.985Z,19.68
2022-08-12T00:48:55.667Z,19.51
2022-08-12T00:49:56.174Z,19.48
2022-08-12T00:50:56.766Z,19.49
2022-08-12T00:51:57.391Z,19.49
2022-08-12T00:52:58.246Z,19.49
2022-08-12T00:53:58.746Z,19.50
2022-08-12T00:55:00.505Z,19.50
2022-08-12T00:56:01.203Z,19.50
2022-08-12T00:57:00.554Z,19.50
2022-08-12T00:58:01.318Z,19.50
2022-08-12T00:59:03.289Z,19.50
2022-08-12T01:00:03.052Z,19.49
2022-08-12T01:01:03.754Z,19.49
2022-08-12T01:02:11.985Z,19.49
2022-08-12T01:03:04.261Z,19.49
2022-08-12T01:04:05.604Z,19.49
2022-08-12T01:05:06.232Z,19.49
2022-08-12T01:06:06.724Z,19.49
2022-08-12T01:07:06.844Z,19.48
2022-08-12T01:08:07.492Z,19.48
2022-08-12T01:09:08.346Z,19.48
2022-08-12T01:10:09.244Z,19.47
2022-08-12T01:11:09.790Z,19.46
2022-08-12T01:12:08.853Z,19.45
2022-08-12T01:13:19.063Z,19.44
2022-08-12T01:13:20.506Z,19.29
2022-08-12T01:14:19.962Z,19.26
2022-08-12T01:15:21.872Z,19.26
2022-08-12T01:16:21.486Z,19.26
2022-08-12T01:17:22.494Z,19.26
2022-08-12T01:18:23.255Z,19.24
2022-08-12T01:19:24.148Z,19.24
2022-08-12T01:20:24.678Z,19.23
2022-08-12T01:21:24.123Z,19.22
2022-08-12T01:22:25.792Z,19.22
2022-08-12T01:23:26.379Z,19.21
2022-08-12T01:24:31.331Z,19.20
2022-08-12T01:25:26.976Z,19.19
2022-08-12T01:26:28.945Z,19.18
2022-08-12T01:27:29.444Z,19.18
2022-08-12T01:28:30.436Z,19.17
2022-08-12T01:29:33.249Z,19.16
2022-08-12T01:30:31.156Z,19.16
2022-08-12T01:31:32.876Z,19.15
2022-08-12T01:32:33.562Z,19.13
2022-08-12T01:33:34.465Z,19.12
2022-08-12T01:33:43.222Z,18.91
2022-08-12T01:34:43.287Z,18.89
2022-08-12T01:35:45.143Z,18.89
2022-08-12T01:36:44.388Z,18.90
2022-08-12T01:37:45.955Z,18.90
2022-08-12T01:38:46.722Z,18.90
2022-08-12T01:40:35.318Z,18.90
2022-08-12T01:40:47.274Z,18.90
2022-08-12T01:41:51.116Z,18.91
2022-08-12T01:42:48.507Z,18.91
2022-08-12T01:43:49.110Z,18.92
2022-08-12T01:44:50.992Z,18.92
2022-08-12T01:45:53.461Z,18.93
2022-08-12T01:46:51.089Z,18.93
2022-08-12T01:47:51.116Z,18.93
2022-08-12T01:48:51.965Z,18.93
2022-08-12T01:49:53.346Z,18.93
2022-08-12T01:50:54.127Z,18.93
2022-08-12T01:52:20.416Z,18.93
2022-08-12T01:52:53.912Z,18.93
2022-08-12T01:53:54.200Z,18.93
2022-08-12T01:54:54.200Z,18.94
2022-08-12T01:55:54.813Z,18.93
2022-08-12T01:56:54.935Z,18.93
2022-08-12T01:57:58.636Z,18.92
2022-08-12T01:58:55.555Z,18.92
2022-08-12T01:59:56.991Z,18.92
2022-08-12T02:00:07.156Z,18.91
2022-08-12T02:01:08.038Z,18.87
2022-08-12T02:02:08.043Z,18.87
2022-08-12T02:03:08.264Z,18.86
2022-08-12T02:04:08.868Z,18.85
2022-08-12T02:05:13.061Z,18.84
2022-08-12T02:06:10.051Z,18.82
2022-08-12T02:07:10.406Z,18.80
2022-08-12T02:08:12.113Z,18.79
2022-08-12T02:09:11.173Z,18.77
2022-08-12T02:10:50.642Z,18.75
2022-08-12T02:11:12.379Z,18.73
2022-08-12T02:12:13.675Z,18.71
2022-08-12T02:13:14.347Z,18.69
2022-08-12T02:14:13.932Z,18.66
2022-08-12T02:15:15.733Z,18.64
2022-08-12T02:16:16.509Z,18.62
2022-08-12T02:17:16.554Z,18.60
2022-08-12T02:18:16.198Z,18.58
2022-08-12T02:19:23.098Z,18.56
2022-08-12T02:20:16.873Z,18.54
2022-08-12T02:21:18.428Z,18.53
2022-08-12T02:21:27.105Z,18.21
2022-08-12T02:22:27.949Z,18.18
2022-08-12T02:23:29.696Z,18.18
2022-08-12T02:24:30.142Z,18.17
2022-08-12T02:25:31.034Z,18.17
2022-08-12T02:26:31.582Z,18.18
2022-08-12T02:27:31.039Z,18.18
2022-08-12T02:28:31.393Z,18.17
2022-08-12T02:29:33.199Z,18.16
2022-08-12T02:30:41.865Z,18.15
2022-08-12T02:31:33.876Z,18.15
2022-08-12T02:32:35.042Z,18.15
2022-08-12T02:33:34.874Z,18.14
2022-08-12T02:34:36.158Z,18.14
2022-08-12T02:35:37.067Z,18.13
2022-08-12T02:36:37.506Z,18.13
2022-08-12T02:37:38.313Z,18.12
2022-08-12T02:38:39.217Z,18.12
2022-08-12T02:39:39.245Z,18.11
2022-08-12T02:40:38.956Z,18.10
2022-08-12T02:40:48.067Z,17.96
2022-08-12T02:41:49.848Z,17.93
2022-08-12T02:42:50.495Z,17.93
2022-08-12T02:43:50.984Z,17.93
2022-08-12T02:44:51.640Z,17.93
2022-08-12T02:45:52.050Z,17.93
2022-08-12T02:46:52.745Z,17.92
2022-08-12T02:47:59.261Z,17.91
2022-08-12T02:48:52.994Z,17.91
2022-08-12T02:49:54.554Z,17.91
2022-08-12T02:50:55.061Z,17.90
2022-08-12T02:51:55.517Z,17.91
2022-08-12T02:52:56.438Z,17.90
2022-08-12T02:54:04.839Z,17.90
2022-08-12T02:54:56.778Z,17.90
2022-08-12T02:55:58.280Z,17.90
2022-08-12T02:56:58.582Z,17.90
2022-08-12T02:57:58.721Z,17.90
2022-08-12T02:58:58.347Z,17.90
2022-08-12T03:00:00.046Z,17.90
2022-08-12T03:00:59.830Z,17.89
2022-08-12T03:02:00.560Z,17.89
2022-08-12T03:03:01.438Z,17.88
2022-08-12T03:03:11.616Z,17.84
2022-08-12T03:04:15.409Z,17.82
2022-08-12T03:05:13.168Z,17.82
2022-08-12T03:06:13.756Z,17.81
2022-08-12T03:07:14.434Z,17.81
2022-08-12T03:08:31.966Z,17.81
2022-08-12T03:09:16.539Z,17.82
2022-08-12T03:10:18.107Z,17.81
2022-08-12T03:11:17.336Z,17.82
2022-08-12T03:12:19.967Z,17.82
2022-08-12T03:13:17.872Z,17.82
2022-08-12T03:14:19.028Z,17.81
2022-08-12T03:15:21.974Z,17.80
2022-08-12T03:16:18.787Z,17.79
2022-08-12T03:17:19.177Z,17.78
2022-08-12T03:18:25.869Z,17.77
2022-08-12T03:19:20.162Z,17.75
2022-08-12T03:20:24.463Z,17.74
2022-08-12T03:22:03.841Z,17.72
2022-08-12T03:22:21.611Z,17.70
2022-08-12T03:23:29.704Z,17.68
2022-08-12T03:24:22.818Z,17.66
2022-08-12T03:25:24.608Z,17.64
2022-08-12T03:26:25.354Z,17.63
2022-08-12T03:26:34.070Z,17.41
2022-08-12T03:27:35.178Z,17.38
2022-08-12T03:28:35.974Z,17.38
2022-08-12T03:29:49.753Z,17.38
2022-08-12T03:30:35.181Z,17.38
2022-08-12T03:31:37.084Z,17.37
2022-08-12T03:32:37.762Z,17.36
2022-08-12T03:33:37.904Z,17.35
2022-08-12T03:34:38.399Z,17.35
2022-08-12T03:35:40.874Z,17.34
2022-08-12T03:36:38.336Z,17.34
2022-08-12T03:37:39.542Z,17.33
2022-08-12T03:38:39.879Z,17.33
2022-08-12T03:39:40.453Z,17.33
2022-08-12T03:40:39.426Z,17.33
2022-08-12T03:41:40.523Z,17.33
2022-08-12T03:42:40.580Z,17.32
2022-08-12T03:43:41.216Z,17.32
2022-08-12T03:44:41.685Z,17.31
2022-08-12T03:45:52.666Z,17.31
2022-08-12T03:46:42.972Z,17.30
2022-08-12T03:47:43.566Z,17.29
2022-08-12T03:48:43.824Z,17.29
2022-08-12T03:48:54.521Z,17.19
2022-08-12T03:49:55.441Z,17.18
2022-08-12T03:50:56.589Z,17.17
2022-08-12T03:51:57.291Z,17.17
2022-08-12T03:52:58.048Z,17.17
2022-08-12T03:53:58.611Z,17.16
2022-08-12T03:54:58.041Z,17.15
2022-08-12T03:55:59.801Z,17.14
2022-08-12T03:56:59.572Z,17.13
2022-08-12T03:58:01.379Z,17.12
2022-08-12T03:59:01.936Z,17.10
2022-08-12T04:00:02.226Z,17.09
2022-08-12T04:01:03.163Z,17.08
2022-08-12T04:02:02.522Z,17.07
2022-08-12T04:03:04.064Z,17.06
2022-08-12T04:04:04.605Z,17.05
2022-08-12T04:05:05.586Z,17.03
2022-08-12T04:06:05.400Z,17.02
2022-08-12T04:07:05.791Z,17.01
2022-08-12T04:08:07.468Z,17.00
2022-08-12T04:09:16.225Z,16.99
2022-08-12T04:09:18.422Z,16.85
2022-08-12T04:10:18.371Z,16.83
2022-08-12T04:11:20.016Z,16.83
2022-08-12T04:12:20.636Z,16.83
2022-08-12T04:13:20.594Z,16.83
2022-08-12T04:14:22.338Z,16.82
2022-08-12T04:15:21.803Z,16.81
2022-08-12T04:16:23.602Z,16.80
2022-08-12T04:17:23.833Z,16.79
2022-08-12T04:18:24.457Z,16.78
2022-08-12T04:19:25.374Z,16.78
2022-08-12T04:20:24.822Z,16.78
2022-08-12T04:21:26.021Z,16.77
2022-08-12T04:22:26.468Z,16.77
2022-08-12T04:23:27.073Z,16.77
2022-08-12T04:24:28.480Z,16.76
2022-08-12T04:25:27.834Z,16.75
2022-08-12T04:26:28.090Z,16.75
2022-08-12T04:27:28.812Z,16.75
2022-08-12T04:28:30.652Z,16.75
2022-08-12T04:30:17.097Z,16.75
2022-08-12T04:30:33.646Z,16.75
2022-08-12T04:31:30.828Z,16.75
2022-08-12T04:32:32.857Z,16.76
2022-08-12T04:32:44.443Z,16.79
2022-08-12T04:33:41.488Z,16.76
2022-08-12T04:34:42.741Z,16.76
2022-08-12T04:35:42.460Z,16.76
2022-08-12T04:36:43.906Z,16.76
2022-08-12T04:37:58.184Z,16.77
2022-08-12T04:38:44.324Z,16.77
2022-08-12T04:39:46.295Z,16.77
2022-08-12T04:40:45.970Z,16.76
2022-08-12T04:41:56.207Z,16.76
2022-08-12T04:42:47.145Z,16.75
2022-08-12T04:44:01.423Z,16.75
2022-08-12T04:44:48.854Z,16.73
2022-08-12T04:45:49.574Z,16.72
2022-08-12T04:46:54.448Z,16.71
2022-08-12T04:47:51.098Z,16.70
2022-08-12T04:48:52.829Z,16.69
2022-08-12T04:49:53.389Z,16.68
2022-08-12T04:50:53.311Z,16.67
2022-08-12T04:51:59.259Z,16.66
2022-08-12T04:52:54.136Z,16.64
2022-08-12T04:53:56.088Z,16.63
2022-08-12T04:54:56.258Z,16.61
2022-08-12T04:55:09.436Z,16.39
2022-08-12T04:56:10.988Z,16.35
2022-08-12T04:57:11.206Z,16.35
2022-08-12T04:58:11.716Z,16.35
2022-08-12T04:59:11.203Z,16.36
2022-08-12T05:00:13.645Z,16.36
2022-08-12T05:01:12.184Z,16.37
2022-08-12T05:02:16.535Z,16.37
2022-08-12T05:03:13.063Z,16.38
2022-08-12T05:04:14.555Z,16.39
2022-08-12T05:05:15.089Z,16.41
2022-08-12T05:06:26.555Z,16.42
2022-08-12T05:07:15.261Z,16.42
2022-08-12T05:08:16.835Z,16.43
2022-08-12T05:09:17.410Z,16.43
2022-08-12T05:10:16.457Z,16.44
2022-08-12T05:11:17.761Z,16.45
2022-08-12T05:12:17.247Z,16.46
2022-08-12T05:13:18.429Z,16.46
2022-08-12T05:14:19.376Z,16.47
2022-08-12T05:15:29.214Z,16.48
2022-08-12T05:15:30.369Z,16.72
2022-08-12T05:16:34.190Z,16.71
2022-08-12T05:17:31.489Z,16.71
2022-08-12T05:18:32.057Z,16.73
2022-08-12T05:19:33.347Z,16.77
2022-08-12T05:20:33.178Z,16.83
2022-08-12T05:21:34.972Z,16.90
2022-08-12T05:22:37.125Z,16.98
2022-08-12T05:23:34.886Z,17.09
2022-08-12T05:24:36.343Z,17.21
2022-08-12T05:25:36.629Z,17.34
2022-08-12T05:26:37.224Z,17.48
2022-08-12T05:27:37.262Z,17.63
2022-08-12T05:28:37.655Z,17.79
2022-08-12T05:30:07.560Z,17.97
2022-08-12T05:30:37.792Z,18.15
2022-08-12T05:31:47.682Z,18.35
2022-08-12T05:32:39.646Z,18.56
2022-08-12T05:33:39.534Z,18.76
2022-08-12T05:34:40.247Z,18.98
2022-08-12T05:35:41.374Z,19.20
2022-08-12T05:36:42.134Z,19.43
2022-08-12T05:37:41.732Z,19.66
2022-08-12T05:38:42.518Z,19.90
2022-08-12T05:38:51.270Z,23.55
2022-08-12T05:39:51.704Z,23.53
2022-08-12T05:40:51.983Z,23.56
2022-08-12T05:41:52.247Z,23.58
2022-08-12T05:42:53.739Z,23.60
2022-08-12T05:43:54.641Z,23.65
2022-08-12T05:44:55.402Z,23.69
2022-08-12T05:45:56.212Z,23.75
2022-08-12T05:46:55.929Z,23.82
2022-08-12T05:47:57.490Z,23.89
2022-08-12T05:48:58.151Z,23.96
2022-08-12T05:49:57.673Z,24.06
2022-08-12T05:50:59.363Z,24.16
2022-08-12T05:51:59.236Z,24.27
2022-08-12T05:53:01.095Z,24.38
2022-08-12T05:54:00.483Z,24.50
2022-08-12T05:55:01.817Z,24.63
2022-08-12T05:56:02.756Z,24.76
2022-08-12T05:57:02.529Z,24.92
2022-08-12T05:58:03.241Z,25.07
2022-08-12T05:59:03.673Z,25.22
2022-08-12T06:00:03.816Z,25.39
2022-08-12T06:00:15.529Z,28.12
2022-08-12T06:02:10.006Z,28.15
2022-08-12T06:02:16.474Z,28.15
2022-08-12T06:03:19.484Z,28.14
2022-08-12T06:04:17.341Z,28.14
2022-08-12T06:05:18.423Z,28.10
2022-08-12T06:06:19.124Z,28.11
2022-08-12T06:08:00.423Z,28.10
2022-08-12T06:08:19.146Z,28.08
2022-08-12T06:09:20.789Z,28.08
2022-08-12T06:10:31.618Z,28.09
2022-08-12T06:11:20.920Z,28.10
2022-08-12T06:12:22.598Z,28.09
2022-08-12T06:13:28.186Z,28.10
2022-08-12T06:14:23.341Z,28.15
2022-08-12T06:15:23.511Z,28.20
2022-08-12T06:16:24.880Z,28.25
2022-08-12T06:17:25.614Z,28.32
2022-08-12T06:18:29.626Z,28.36
2022-08-12T06:19:24.689Z,28.38
2022-08-12T06:20:29.932Z,28.43
2022-08-12T06:21:25.606Z,28.48
2022-08-12T06:22:25.645Z,28.48
2022-08-12T06:22:35.429Z,28.55
2022-08-12T06:23:38.114Z,28.38
2022-08-12T06:24:35.493Z,28.38
2022-08-12T06:25:36.932Z,28.43
2022-08-12T06:26:35.940Z,28.43
2022-08-12T06:27:36.741Z,28.47
2022-08-12T06:28:37.731Z,28.51
2022-08-12T06:30:09.343Z,28.58
2022-08-12T06:30:39.840Z,28.66
2022-08-12T06:31:38.839Z,28.71
2022-08-12T06:32:51.912Z,28.78
2022-08-12T06:34:00.738Z,28.85
2022-08-12T06:35:27.247Z,28.92
2022-08-12T06:35:48.657Z,29.01
2022-08-12T06:36:40.892Z,29.12
2022-08-12T06:37:41.615Z,29.20
2022-08-12T06:38:42.572Z,29.28
2022-08-12T06:39:44.264Z,29.35
2022-08-12T06:40:43.766Z,29.38
2022-08-12T06:42:05.191Z,29.38
2022-08-12T06:42:44.928Z,29.40
2022-08-12T06:44:04.923Z,29.46
2022-08-12T06:44:45.991Z,29.50
2022-08-12T06:45:47.468Z,29.53
2022-08-12T06:46:47.470Z,29.62
2022-08-12T06:47:47.709Z,29.69
2022-08-12T06:47:58.372Z,30.98
2022-08-12T06:48:59.689Z,30.96
2022-08-12T06:49:59.239Z,30.98
2022-08-12T06:51:00.028Z,31.00
2022-08-12T06:52:01.091Z,30.99
2022-08-12T06:53:01.474Z,31.01
2022-08-12T06:54:02.141Z,31.03
2022-08-12T06:55:02.600Z,31.01
2022-08-12T06:56:01.766Z,31.04
2022-08-12T06:57:57.174Z,31.08
2022-08-12T06:58:07.863Z,31.08
2022-08-12T06:59:03.806Z,31.05
2022-08-12T07:00:03.984Z,30.98
2022-08-12T07:01:05.573Z,30.97
2022-08-12T07:02:05.169Z,30.99
2022-08-12T07:03:16.314Z,31.03
2022-08-12T07:04:26.336Z,31.12
2022-08-12T07:05:05.683Z,31.22
2022-08-12T07:06:06.303Z,31.32
2022-08-12T07:07:07.799Z,31.40
2022-08-12T07:08:07.946Z,31.39
2022-08-12T07:09:07.347Z,31.36
2022-08-12T07:10:08.854Z,31.35
2022-08-12T07:11:07.866Z,31.39
2022-08-12T07:12:08.711Z,31.46
2022-08-12T07:12:19.108Z,32.73
2022-08-12T07:13:20.950Z,32.68
2022-08-12T07:14:21.079Z,32.69
2022-08-12T07:15:21.104Z,32.72
2022-08-12T07:16:20.938Z,32.73
2022-08-12T07:17:22.788Z,32.70
2022-08-12T07:18:23.499Z,32.71
2022-08-12T07:19:23.958Z,32.75
2022-08-12T07:20:50.796Z,32.82
2022-08-12T07:21:24.217Z,32.87
2022-08-12T07:22:24.629Z,32.94
2022-08-12T07:23:25.284Z,33.01
2022-08-12T07:24:26.769Z,33.07
2022-08-12T07:25:27.045Z,33.14
2022-08-12T07:26:27.896Z,33.24
2022-08-12T07:27:27.837Z,33.29
2022-08-12T07:28:28.340Z,33.33
2022-08-12T07:30:02.969Z,33.34
2022-08-12T07:30:30.043Z,33.39
2022-08-12T07:31:31.431Z,33.45
2022-08-12T07:32:31.483Z,33.51
2022-08-12T07:33:32.317Z,33.58
2022-08-12T07:34:33.531Z,33.61
2022-08-12T07:34:42.309Z,33.98
2022-08-12T07:35:42.668Z,34.00
2022-08-12T07:36:44.326Z,34.00
2022-08-12T07:37:45.274Z,34.03
2022-08-12T07:38:44.981Z,34.06
2022-08-12T07:39:50.709Z,34.04
2022-08-12T07:40:46.186Z,34.05
2022-08-12T07:41:48.065Z,34.02
2022-08-12T07:42:48.684Z,34.03
2022-08-12T07:43:49.205Z,34.05
2022-08-12T07:44:51.727Z,34.07
2022-08-12T07:45:49.440Z,34.09
2022-08-12T07:46:50.404Z,34.09
2022-08-12T07:47:51.482Z,34.09
2022-08-12T07:48:52.327Z,34.11
2022-08-12T07:50:04.774Z,34.16
2022-08-12T07:50:52.394Z,34.19
2022-08-12T07:51:53.814Z,34.20
2022-08-12T07:52:53.878Z,34.21
2022-08-12T07:54:00.689Z,34.20
2022-08-12T07:54:53.589Z,34.17
2022-08-12T07:55:55.364Z,34.14
2022-08-12T07:56:04.070Z,33.58
2022-08-12T07:57:04.107Z,33.58
2022-08-12T07:58:05.784Z,33.58
2022-08-12T07:59:04.907Z,33.59
2022-08-12T08:00:06.740Z,33.59
2022-08-12T08:01:12.015Z,33.59
2022-08-12T08:02:06.582Z,33.59
2022-08-12T08:03:07.274Z,33.56
2022-08-12T08:04:08.733Z,33.54
2022-08-12T08:05:09.043Z,33.49
2022-08-12T08:06:09.813Z,33.46
2022-08-12T08:07:09.742Z,33.40
2022-08-12T08:08:10.164Z,33.31
2022-08-12T08:09:12.144Z,33.25
2022-08-12T08:10:11.468Z,33.20
2022-08-12T08:11:11.978Z,33.13
2022-08-12T08:12:19.369Z,33.07
2022-08-12T08:13:13.005Z,33.01
2022-08-12T08:14:14.500Z,32.94
2022-08-12T08:15:14.548Z,32.86
2022-08-12T08:16:13.720Z,32.78
2022-08-12T08:17:14.963Z,32.72
2022-08-12T08:18:26.259Z,31.71
2022-08-12T08:18:26.308Z,32.64
2022-08-12T08:19:24.459Z,31.69
2022-08-12T08:20:26.410Z,31.68
2022-08-12T08:21:26.548Z,31.67
2022-08-12T08:22:40.627Z,31.64
2022-08-12T08:23:29.220Z,31.62
2022-08-12T08:24:26.654Z,31.55
2022-08-12T08:25:35.915Z,31.48
2022-08-12T08:26:27.384Z,31.40
2022-08-12T08:27:27.493Z,31.33
2022-08-12T08:28:28.996Z,31.27
2022-08-12T08:29:29.512Z,31.21
2022-08-12T08:30:29.045Z,31.16
2022-08-12T08:31:29.425Z,31.11
2022-08-12T08:32:30.808Z,31.02
2022-08-12T08:34:05.181Z,30.93
2022-08-12T08:34:54.200Z,30.87
2022-08-12T08:35:47.024Z,30.79
2022-08-12T08:36:30.913Z,30.71
2022-08-12T08:37:33.078Z,30.64
2022-08-12T08:38:35.227Z,30.58
2022-08-12T08:39:32.301Z,30.53
2022-08-12T08:40:32.523Z,30.46
2022-08-12T08:42:16.579Z,30.42
2022-08-12T08:42:33.594Z,30.38
2022-08-12T08:42:42.448Z,29.52
2022-08-12T08:43:44.413Z,29.47
2022-08-12T08:44:43.308Z,29.47
2022-08-12T08:45:44.873Z,29.49
2022-08-12T08:46:45.773Z,29.51
2022-08-12T08:47:46.602Z,29.53
2022-08-12T08:48:47.198Z,29.54
2022-08-12T08:49:46.881Z,29.55
2022-08-12T08:51:04.322Z,29.56
2022-08-12T08:51:47.641Z,29.58
2022-08-12T08:52:48.503Z,29.60
2022-08-12T08:53:52.916Z,29.60
2022-08-12T08:54:49.467Z,29.61
2022-08-12T08:56:04.666Z,29.60
2022-08-12T08:56:50.580Z,29.59
2022-08-12T08:57:51.942Z,29.59
2022-08-12T08:58:51.835Z,29.58
2022-08-12T08:59:51.868Z,29.56
2022-08-12T09:00:52.080Z,29.55
2022-08-12T09:01:54.002Z,29.54
2022-08-12T09:02:58.439Z,29.55
2022-08-12T09:05:12.892Z,29.56
2022-08-12T09:05:14.490Z,29.56
2022-08-12T09:06:55.988Z,29.57
2022-08-12T09:08:08.835Z,29.58
2022-08-12T09:08:14.307Z,29.49
2022-08-12T09:09:13.234Z,29.48
2022-08-12T09:10:15.687Z,29.49
2022-08-12T09:11:07.125Z,29.49
2022-08-12T09:12:12.248Z,29.49
2022-08-12T09:13:08.056Z,29.50
2022-08-12T09:14:10.505Z,29.51
2022-08-12T09:16:09.143Z,29.53
2022-08-12T09:17:10.126Z,29.54
2022-08-12T09:18:10.960Z,29.54
2022-08-12T09:19:27.193Z,29.55
2022-08-12T09:21:12.287Z,29.61
2022-08-12T09:22:18.530Z,29.64
2022-08-12T09:23:57.107Z,29.67
2022-08-12T09:24:16.314Z,29.70
2022-08-12T09:25:25.492Z,29.73
2022-08-12T09:26:15.225Z,29.76
2022-08-12T09:27:16.036Z,29.79
2022-08-12T09:28:18.169Z,29.82
2022-08-12T09:29:17.381Z,29.85
2022-08-12T09:30:18.320Z,29.86
2022-08-12T09:32:03.990Z,29.86
2022-08-12T09:32:56.032Z,29.86
2022-08-12T09:34:28.388Z,29.86
2022-08-12T09:34:28.602Z,29.86
2022-08-12T09:35:22.598Z,29.85
2022-08-12T09:36:31.331Z,29.85
2022-08-12T09:37:22.626Z,29.83
2022-08-12T09:38:29.864Z,29.82
2022-08-12T09:40:01.762Z,29.80
2022-08-12T09:41:02.569Z,29.77
2022-08-12T09:41:03.835Z,29.09
2022-08-12T09:42:34.189Z,29.05
2022-08-12T09:42:43.577Z,29.03
2022-08-12T09:43:34.654Z,29.04
2022-08-12T09:44:38.617Z,29.04
2022-08-12T09:46:11.466Z,29.06
2022-08-12T09:46:36.137Z,29.08
2022-08-12T09:47:36.454Z,29.09
2022-08-12T09:48:39.344Z,29.11
2022-08-12T09:49:42.309Z,29.13
2022-08-12T09:50:38.124Z,29.14
2022-08-12T09:51:44.090Z,29.16
2022-08-12T09:52:39.544Z,29.16
2022-08-12T09:53:40.047Z,29.17
2022-08-12T09:54:42.679Z,29.18
2022-08-12T09:56:07.290Z,29.18
2022-08-12T09:57:02.133Z,29.19
2022-08-12T09:58:08.162Z,29.20
2022-08-12T09:58:56.620Z,29.22
2022-08-12T10:00:14.810Z,29.22
2022-08-12T10:00:51.812Z,29.23
2022-08-12T10:02:43.108Z,29.24
2022-08-12T10:02:49.613Z,29.26
2022-08-12T10:03:55.468Z,29.27
2022-08-12T10:04:51.437Z,29.28
2022-08-12T10:06:19.810Z,29.28
2022-08-12T10:06:54.337Z,29.29
2022-08-12T10:07:46.349Z,29.30
2022-08-12T10:08:52.675Z,29.32
2022-08-12T10:09:58.341Z,29.32
2022-08-12T10:10:47.990Z,29.32
2022-08-12T10:12:11.113Z,29.46
2022-08-12T10:12:11.322Z,29.33
2022-08-12T10:13:07.015Z,29.44
2022-08-12T10:13:57.570Z,29.44
2022-08-12T10:14:59.158Z,29.45
2022-08-12T10:16:02.308Z,29.45
2022-08-12T10:16:59.217Z,29.45
2022-08-12T10:18:06.317Z,29.45
2022-08-12T10:19:00.336Z,29.45
2022-08-12T10:20:02.066Z,29.45
2022-08-12T10:21:01.602Z,29.45
2022-08-12T10:22:03.322Z,29.45
2022-08-12T10:23:03.792Z,29.46
2022-08-12T10:24:02.909Z,29.48
2022-08-12T10:25:04.253Z,29.51
2022-08-12T10:26:34.417Z,29.55
2022-08-12T10:27:05.707Z,29.58
2022-08-12T10:28:09.818Z,29.62
2022-08-12T10:30:01.076Z,29.66
2022-08-12T10:30:40.189Z,29.70
2022-08-12T10:31:06.034Z,29.73
2022-08-12T10:32:21.337Z,29.75
2022-08-12T10:33:19.102Z,29.79
2022-08-12T10:34:14.949Z,29.80
2022-08-12T10:35:09.251Z,29.80
2022-08-12T10:36:09.760Z,29.81
2022-08-12T10:38:05.695Z,29.81
2022-08-12T10:38:33.802Z,29.82
2022-08-12T10:38:35.041Z,30.13
2022-08-12T10:40:00.140Z,30.11
2022-08-12T10:40:22.007Z,30.11
2022-08-12T10:41:21.119Z,30.11
2022-08-12T10:42:29.241Z,30.12
2022-08-12T10:43:22.301Z,30.13
2022-08-12T10:44:23.671Z,30.13
2022-08-12T10:45:23.898Z,30.14
2022-08-12T10:46:24.081Z,30.16
2022-08-12T10:47:26.112Z,30.17
2022-08-12T10:48:26.993Z,30.19
2022-08-12T10:50:03.143Z,30.21
2022-08-12T10:50:35.961Z,30.24
2022-08-12T10:52:03.752Z,30.26
2022-08-12T10:52:33.047Z,30.28
2022-08-12T10:53:44.304Z,30.29
2022-08-12T10:54:29.387Z,30.30
2022-08-12T10:55:30.225Z,30.30
2022-08-12T10:56:34.258Z,30.31
2022-08-12T10:58:14.837Z,30.32
2022-08-12T10:58:31.992Z,30.34
2022-08-12T11:00:31.699Z,30.34
2022-08-12T11:00:35.472Z,30.34
2022-08-12T11:04:17.188Z,30.35
2022-08-12T11:04:20.569Z,30.35
2022-08-12T11:04:28.236Z,30.35
2022-08-12T11:04:45.636Z,30.35
2022-08-12T11:07:06.816Z,30.36
2022-08-12T11:07:09.589Z,30.36
2022-08-12T11:08:33.745Z,30.37
2022-08-12T11:08:41.960Z,30.39
2022-08-12T11:08:47.227Z,30.65
2022-08-12T11:09:55.982Z,30.63
2022-08-12T11:10:47.406Z,30.63
2022-08-12T11:12:34.713Z,30.64
2022-08-12T11:12:58.539Z,30.65
2022-08-12T11:13:48.889Z,30.66
2022-08-12T11:14:51.219Z,30.66
2022-08-12T11:16:19.578Z,30.66
2022-08-12T11:17:43.711Z,30.65
2022-08-12T11:17:53.564Z,30.64
2022-08-12T11:18:55.583Z,30.63
2022-08-12T11:19:51.031Z,30.60
2022-08-12T11:20:52.316Z,30.59
2022-08-12T11:21:58.179Z,30.58
2022-08-12T11:22:58.568Z,30.59
2022-08-12T11:23:53.373Z,30.61
2022-08-12T11:24:53.844Z,30.64
2022-08-12T11:25:57.592Z,30.68
2022-08-12T11:26:53.967Z,30.71
2022-08-12T11:27:53.911Z,30.75
2022-08-12T11:28:59.389Z,30.78
2022-08-12T11:30:05.415Z,30.80
2022-08-12T11:30:56.116Z,30.79
2022-08-12T11:32:02.350Z,30.77
2022-08-12T11:32:57.630Z,30.77
2022-08-12T11:34:06.139Z,30.78
2022-08-12T11:34:59.328Z,30.79
2022-08-12T11:35:59.840Z,30.79
2022-08-12T11:36:58.588Z,30.80
2022-08-12T11:37:59.963Z,30.81
2022-08-12T11:39:04.284Z,30.83
2022-08-12T11:39:59.797Z,30.85
2022-08-12T11:41:10.305Z,31.19
2022-08-12T11:42:09.377Z,31.18
2022-08-12T11:43:19.202Z,31.18
2022-08-12T11:44:36.722Z,31.18
2022-08-12T11:45:10.738Z,31.18
2022-08-12T11:46:11.015Z,31.18
2022-08-12T11:47:11.268Z,31.17
2022-08-12T11:48:11.992Z,31.15
2022-08-12T11:49:12.829Z,31.09
2022-08-12T11:50:19.072Z,31.07
2022-08-12T11:51:14.700Z,31.05
2022-08-12T11:52:26.524Z,31.04
2022-08-12T11:53:56.545Z,31.04
2022-08-12T11:54:15.249Z,31.04
2022-08-12T11:55:16.246Z,31.05
2022-08-12T11:56:17.135Z,31.06
2022-08-12T11:58:07.163Z,31.07
2022-08-12T11:58:36.546Z,31.06
2022-08-12T12:02:02.218Z,31.07
2022-08-12T12:02:21.502Z,31.07
2022-08-12T12:03:23.110Z,31.07
2022-08-12T12:04:28.802Z,31.07
2022-08-12T12:05:22.929Z,31.08
2022-08-12T12:06:23.693Z,31.09
2022-08-12T12:08:36.756Z,31.09
2022-08-12T12:08:41.041Z,31.10
2022-08-12T12:09:24.455Z,31.10
2022-08-12T12:09:52.560Z,31.08
2022-08-12T12:10:33.932Z,31.06
2022-08-12T12:11:48.958Z,31.05
2022-08-12T12:12:34.441Z,31.05
2022-08-12T12:14:07.783Z,31.04
2022-08-12T12:14:37.880Z,31.03
2022-08-12T12:15:40.957Z,31.04
2022-08-12T12:16:39.718Z,31.05
2022-08-12T12:17:38.316Z,31.06
2022-08-12T12:18:36.858Z,31.07
2022-08-12T12:19:45.222Z,31.08
2022-08-12T12:20:37.127Z,31.08
2022-08-12T12:21:47.027Z,31.08
2022-08-12T12:22:38.642Z,31.07
2022-08-12T12:23:38.794Z,31.07
2022-08-12T12:24:38.828Z,31.07
2022-08-12T12:25:59.278Z,31.07
2022-08-12T12:26:40.095Z,31.08
2022-08-12T12:28:04.457Z,31.09
2022-08-12T12:28:40.701Z,31.11
2022-08-12T12:30:13.460Z,31.13
2022-08-12T12:30:54.722Z,31.15
2022-08-12T12:32:11.173Z,31.16
2022-08-12T12:32:43.161Z,31.18
2022-08-12T12:33:57.040Z,31.20
2022-08-12T12:35:14.370Z,31.22
2022-08-12T12:36:18.270Z,31.19
2022-08-12T12:36:44.930Z,31.17
2022-08-12T12:38:03.643Z,31.16
2022-08-12T12:38:46.018Z,31.16
2022-08-12T12:39:55.265Z,31.18